Time;durP1;ratioP1;P1;durP2;ratioP2;P2;SDS_P1;SDS_P2;PMS_P1;PMS_P2;Temp;Humidity;BMP_temperature;BMP_pressure;BME280_temperature;BME280_humidity;BME280_pressure;Samples;Min_cycle;Max_cycle;Signal;HPM_P1;HPM_P2
2022/01/29 00:00:54;;;;;;;30.85;15.63;;;;;;;;;;5037478;28;20426;-78
2022/01/29 00:03:22;;;;;;;32.40;15.18;;;;;;;;;;5074316;28;20443;-77
2022/01/29 00:05:48;;;;;;;31.25;15.52;;;;;;;;;;5043593;28;21132;-77
2022/01/29 00:08:15;;;;;;;35.40;15.95;;;;;;;;;;5057906;28;20419;-77
2022/01/29 00:10:43;;;;;;;35.30;16.30;;;;;;;;;;5075117;28;20498;-77
2022/01/29 00:13:09;;;;;;;37.28;16.90;;;;;;;;;;5076657;28;20468;-77
2022/01/29 00:15:35;;;;;;;35.88;17.25;;;;;;;;;;5074224;28;20450;-77
2022/01/29 00:18:01;;;;;;;37.72;18.02;;;;;;;;;;5039512;28;20991;-77
2022/01/29 00:20:27;;;;;;;42.35;18.98;;;;;;;;;;5041209;28;20496;-77
2022/01/29 00:22:53;;;;;;;36.67;19.05;;;7.40;99.90;;;;;;5063417;28;20433;-77
2022/01/29 00:25:19;;;;;;;36.38;20.00;;;;;;;;;;5060203;28;20440;-77
2022/01/29 00:27:45;;;;;;;40.47;20.45;;;;;;;;;;5059428;28;20423;-77
2022/01/29 00:30:16;;;;;;;42.00;20.85;;;;;;;;;;5075087;28;20435;-77
2022/01/29 00:32:43;;;;;;;41.38;21.90;;;;;;;;;;5054647;28;20518;-77
2022/01/29 00:35:10;;;;;;;48.30;23.27;;;;;;;;;;5060247;28;20432;-77
2022/01/29 00:37:36;;;;;;;45.22;23.38;;;7.00;99.90;;;;;;5056062;28;20492;-77
2022/01/29 00:40:02;;;;;;;45.83;23.42;;;;;;;;;;5073897;28;20463;-77
2022/01/29 00:42:28;;;;;;;48.58;23.85;;;;;;;;;;5055464;28;20439;-77
2022/01/29 00:44:54;;;;;;;45.53;25.17;;;;;;;;;;5055617;28;20510;-78
2022/01/29 00:47:21;;;;;;;50.40;25.38;;;;;;;;;;5058783;28;20981;-78
2022/01/29 00:49:47;;;;;;;47.17;24.75;;;;;;;;;;5057639;28;20455;-77
2022/01/29 00:52:13;;;;;;;51.53;24.30;;;;;;;;;;5058869;28;20411;-77
2022/01/29 00:54:39;;;;;;;47.77;25.57;;;;;;;;;;5073650;28;20435;-77
2022/01/29 00:57:06;;;;;;;49.95;25.98;;;;;;;;;;5072653;28;20431;-77
2022/01/29 00:59:34;;;;;;;50.40;26.25;;;;;;;;;;5058232;28;20419;-76
2022/01/29 01:02:00;;;;;;;50.95;25.63;;;;;;;;;;5056020;28;20428;-77
2022/01/29 01:04:27;;;;;;;49.75;25.60;;;;;;;;;;5058155;28;20424;-77
2022/01/29 01:06:53;;;;;;;47.88;25.13;;;;;;;;;;5041459;28;20427;-77
2022/01/29 01:09:19;;;;;;;47.65;25.08;;;;;;;;;;5056598;28;20433;-77
2022/01/29 01:11:45;;;;;;;50.15;24.95;;;;;;;;;;5076660;28;20491;-77
2022/01/29 01:14:11;;;;;;;52.47;26.23;;;;;;;;;;5078563;28;20437;-77
2022/01/29 01:16:37;;;;;;;51.85;25.83;;;;;;;;;;5065773;28;20430;-76
2022/01/29 01:19:03;;;;;;;49.88;26.00;;;;;;;;;;5061415;28;20437;-76
2022/01/29 01:21:29;;;;;;;52.60;26.40;;;;;;;;;;5075824;28;20455;-77
2022/01/29 01:23:55;;;;;;;47.85;25.83;;;;;;;;;;5045353;28;20427;-77
2022/01/29 01:26:22;;;;;;;52.85;26.48;;;;;;;;;;5059859;28;20427;-76
2022/01/29 01:28:48;;;;;;;56.60;27.45;;;;;;;;;;5061346;28;20481;-77
2022/01/29 01:31:14;;;;;;;51.78;26.60;;;;;;;;;;5078134;28;20503;-77
2022/01/29 01:33:41;;;;;;;49.88;26.20;;;;;;;;;;5059493;28;20408;-76
2022/01/29 01:36:08;;;;;;;55.05;25.77;;;;;;;;;;5044800;28;20451;-76
2022/01/29 01:41:05;;;;;;;50.70;25.83;;;;;;;;;;5056834;28;20458;-76
2022/01/29 01:43:31;;;;;;;53.35;27.17;;;;;;;;;;5076028;28;20428;-76
2022/01/29 01:45:57;;;;;;;57.08;26.60;;;;;;;;;;5059902;28;20815;-76
2022/01/29 01:48:23;;;;;;;55.70;27.33;;;;;;;;;;5078228;28;20435;-76
2022/01/29 01:50:50;;;;;;;50.25;26.50;;;7.50;99.90;;;;;;5077878;28;20443;-76
2022/01/29 01:53:16;;;;;;;52.33;26.45;;;;;;;;;;5059652;28;20431;-76
2022/01/29 01:55:42;;;;;;;47.88;25.77;;;;;;;;;;5061508;28;20886;-76
2022/01/29 01:58:08;;;;;;;56.30;26.67;;;;;;;;;;5074884;28;20514;-76
2022/01/29 02:00:34;;;;;;;46.90;25.52;;;;;;;;;;5078579;28;20415;-76
2022/01/29 02:03:00;;;;;;;52.28;25.30;;;;;;;;;;5045580;28;20439;-76
2022/01/29 02:05:27;;;;;;;54.78;25.60;;;;;;;;;;5078056;28;20423;-76
2022/01/29 02:07:53;;;;;;;47.13;24.75;;;;;;;;;;5076851;28;20825;-76
2022/01/29 02:10:19;;;;;;;49.42;24.13;;;;;;;;;;5059172;28;20428;-76
2022/01/29 02:12:53;;;;;;;53.20;25.25;;;7.80;99.90;;;;;;5050865;28;20432;-76
2022/01/29 02:15:20;;;;;;;49.55;24.17;;;;;;;;;;5075518;28;20423;-76
2022/01/29 02:17:47;;;;;;;54.35;23.92;;;;;;;;;;5061233;28;20422;-77
2022/01/29 02:20:14;;;;;;;48.03;24.42;;;;;;;;;;5059413;28;20491;-77
2022/01/29 02:22:41;;;;;;;47.20;24.08;;;;;;;;;;5075546;28;20462;-76
2022/01/29 02:25:07;;;;;;;55.00;23.40;;;;;;;;;;5075400;28;20418;-76
2022/01/29 02:27:33;;;;;;;48.33;23.30;;;;;;;;;;5077467;28;20496;-76
2022/01/29 02:29:59;;;;;;;46.15;23.30;;;;;;;;;;5077910;28;20423;-76
2022/01/29 02:32:25;;;;;;;45.92;23.98;;;;;;;;;;5057422;28;20424;-76
2022/01/29 02:34:51;;;;;;;40.03;22.10;;;;;;;;;;5051419;28;20445;-76
2022/01/29 02:37:18;;;;;;;50.50;22.40;;;;;;;;;;5056521;28;20477;-76
2022/01/29 02:39:44;;;;;;;41.30;22.35;;;;;;;;;;5043109;28;20451;-77
2022/01/29 02:42:10;;;;;;;43.57;22.70;;;;;;;;;;5056275;28;20540;-76
2022/01/29 02:44:38;;;;;;;46.28;21.58;;;;;;;;;;5040905;28;22958;-76
2022/01/29 02:47:26;;;;;;;43.38;20.75;;;;;;;;;;5060178;28;20942;-76
2022/01/29 02:49:52;;;;;;;40.63;20.48;;;;;;;;;;5075251;28;20453;-76
2022/01/29 02:52:18;;;;;;;38.30;20.47;;;;;;;;;;5043288;28;20521;-75
2022/01/29 02:54:47;;;;;;;40.83;20.33;;;;;;;;;;5076543;28;21306;-76
2022/01/29 02:57:13;;;;;;;42.35;21.00;;;8.00;99.90;;;;;;5074974;28;20420;-76
2022/01/29 02:59:39;;;;;;;41.05;20.00;;;;;;;;;;5058597;28;20430;-76
2022/01/29 03:02:05;;;;;;;43.88;19.88;;;;;;;;;;5059483;28;20451;-76
2022/01/29 03:04:31;;;;;;;40.30;19.48;;;;;;;;;;5076259;28;20415;-77
2022/01/29 03:06:57;;;;;;;41.38;19.50;;;;;;;;;;5056567;28;20862;-76
2022/01/29 03:09:23;;;;;;;40.67;19.55;;;;;;;;;;5076328;28;20878;-77
2022/01/29 03:11:49;;;;;;;38.63;18.90;;;;;;;;;;5074961;28;20761;-76
2022/01/29 03:14:15;;;;;;;40.28;19.10;;;;;;;;;;5076764;28;20434;-76
2022/01/29 03:16:41;;;;;;;38.97;18.92;;;;;;;;;;5058347;28;20463;-76
2022/01/29 03:19:08;;;;;;;35.40;18.08;;;;;;;;;;5052613;28;20416;-77
2022/01/29 03:21:34;;;;;;;38.53;19.02;;;;;;;;;;5058489;28;20443;-77
2022/01/29 03:24:00;;;;;;;38.80;18.23;;;;;;;;;;5057837;28;20559;-76
2022/01/29 03:26:26;;;;;;;40.22;18.83;;;;;;;;;;5075723;28;20877;-77
2022/01/29 03:28:52;;;;;;;38.50;19.33;;;;;;;;;;5074225;28;20423;-76
2022/01/29 03:31:18;;;;;;;35.92;19.15;;;;;;;;;;5043406;28;20508;-76
2022/01/29 03:33:44;;;;;;;32.53;17.30;;;;;;;;;;5044887;28;20428;-76
2022/01/29 03:36:10;;;;;;;34.25;17.65;;;8.10;99.90;;;;;;5058697;28;20487;-76
2022/01/29 03:38:40;;;;;;;36.95;18.65;;;;;;;;;;5057437;28;20432;-76
2022/01/29 03:41:07;;;;;;;38.25;18.63;;;;;;;;;;5074631;28;20597;-76
2022/01/29 03:43:40;;;;;;;35.63;18.45;;;;;;;;;;5075199;28;20457;-76
2022/01/29 03:46:06;;;;;;;32.10;18.35;;;;;;;;;;5074829;28;20487;-77
2022/01/29 03:48:33;;;;;;;33.15;17.33;;;;;;;;;;5058687;28;20423;-77
2022/01/29 03:50:59;;;;;;;35.22;18.70;;;;;;;;;;5058855;28;20430;-76
2022/01/29 03:53:24;;;;;;;36.38;18.85;;;8.20;99.90;;;;;;5057227;28;20427;-76
2022/01/29 03:55:50;;;;;;;32.80;17.87;;;;;;;;;;5059395;28;20434;-76
2022/01/29 03:58:16;;;;;;;34.58;18.92;;;;;;;;;;5059434;28;20432;-76
2022/01/29 04:00:43;;;;;;;34.67;18.90;;;;;;;;;;5038661;28;20436;-77
2022/01/29 04:03:09;;;;;;;38.17;19.13;;;;;;;;;;5055910;28;20439;-77
2022/01/29 04:05:35;;;;;;;34.42;19.60;;;;;;;;;;5044072;28;20882;-76
2022/01/29 04:08:01;;;;;;;35.45;17.75;;;8.30;99.90;;;;;;5039911;28;20448;-76
2022/01/29 04:10:29;;;;;;;35.63;18.77;;;;;;;;;;5056681;28;20427;-76
2022/01/29 04:12:56;;;;;;;34.73;19.13;;;;;;;;;;5075226;28;20427;-76
2022/01/29 04:15:22;;;;;;;37.95;18.58;;;;;;;;;;5044100;28;20451;-77
2022/01/29 04:17:48;;;;;;;35.53;19.13;;;;;;;;;;5058963;28;20430;-77
2022/01/29 04:20:14;;;;;;;37.08;19.02;;;;;;;;;;5074508;28;20416;-77
2022/01/29 04:22:40;;;;;;;34.58;18.63;;;;;;;;;;5050896;28;20431;-77
2022/01/29 04:25:07;;;;;;;30.30;17.87;;;;;;;;;;5058509;28;20427;-76
2022/01/29 04:27:43;;;;;;;35.22;18.55;;;;;;;;;;5056989;28;20808;-77
2022/01/29 04:30:23;;;;;;;36.30;19.37;;;;;;;;;;5058931;28;20422;-77
2022/01/29 04:35:18;;;;;;;33.83;19.27;;;;;;;;;;5076108;28;20423;-76
2022/01/29 04:37:44;;;;;;;35.33;18.67;;;;;;;;;;5057373;28;20417;-76
2022/01/29 04:40:11;;;;;;;35.10;19.17;;;;;;;;;;5057898;28;20415;-76
2022/01/29 04:42:38;;;;;;;34.30;18.40;;;;;;;;;;5055478;28;20474;-77
2022/01/29 04:45:04;;;;;;;34.73;18.33;;;;;;;;;;5059266;28;20428;-77
2022/01/29 04:47:30;;;;;;;34.85;19.15;;;;;;;;;;5043569;28;20504;-77
2022/01/29 04:49:56;;;;;;;35.17;18.60;;;;;;;;;;5045276;28;20487;-77
2022/01/29 04:52:22;;;;;;;36.15;18.10;;;;;;;;;;5061073;28;20419;-77
2022/01/29 04:54:48;;;;;;;32.47;19.08;;;8.40;99.90;;;;;;5077088;28;20415;-77
2022/01/29 04:57:14;;;;;;;37.97;19.27;;;;;;;;;;5063015;28;20529;-77
2022/01/29 04:59:40;;;;;;;34.05;18.88;;;;;;;;;;5046110;28;20419;-76
2022/01/29 05:02:09;;;;;;;31.23;18.08;;;8.60;99.90;;;;;;5037679;28;20439;-77
2022/01/29 05:04:35;;;;;;;31.80;17.87;;;;;;;;;;5046259;28;21076;-77
2022/01/29 05:07:01;;;;;;;28.13;17.45;;;;;;;;;;5061110;28;20942;-77
2022/01/29 05:09:27;;;;;;;29.25;17.77;;;;;;;;;;5050958;28;20450;-77
2022/01/29 05:11:54;;;;;;;34.33;18.17;;;;;;;;;;5062488;28;20509;-77
2022/01/29 05:14:32;;;;;;;33.17;18.73;;;;;;;;;;5062256;28;20438;-77
2022/01/29 05:26:49;;;;;;;32.35;18.05;;;;;;;;;;5061963;28;20428;-77
2022/01/29 05:28:07;;;;;;;33.38;17.65;;;;;;;;;;5062244;28;20428;-76
2022/01/29 05:30:33;;;;;;;33.30;18.15;;;;;;;;;;5078744;28;20425;-77
2022/01/29 05:32:59;;;;;;;36.80;18.48;;;;;;;;;;5060279;28;20428;-77
2022/01/29 05:35:27;;;;;;;34.78;18.52;;;8.60;99.90;;;;;;5061899;28;20420;-76
2022/01/29 05:37:54;;;;;;;30.80;18.00;;;;;;;;;;5045908;28;20465;-77
2022/01/29 05:40:20;;;;;;;34.73;18.33;;;;;;;;;;5044902;28;21016;-77
2022/01/29 05:42:46;;;;;;;30.42;18.10;;;;;;;;;;5061563;28;20432;-77
2022/01/29 05:45:12;;;;;;;29.50;17.63;;;;;;;;;;5042958;28;20468;-77
2022/01/29 05:47:38;;;;;;;27.13;17.35;;;8.70;99.90;;;;;;5078966;28;20419;-76
2022/01/29 05:50:04;;;;;;;32.30;17.65;;;;;;;;;;5076933;28;20545;-77
2022/01/29 05:52:32;;;;;;;29.87;16.90;;;;;;;;;;5061879;28;20431;-76
2022/01/29 05:54:58;;;;;;;32.58;17.58;;;;;;;;;;5074258;28;20440;-76
2022/01/29 05:57:24;;;;;;;29.65;17.77;;;;;;;;;;5044564;28;20427;-77
2022/01/29 05:59:50;;;;;;;29.23;17.55;;;;;;;;;;5077749;28;20522;-76
2022/01/29 06:02:16;;;;;;;29.02;17.30;;;;;;;;;;5048626;28;20464;-77
2022/01/29 06:04:42;;;;;;;28.45;16.15;;;;;;;;;;5044337;28;20436;-76
2022/01/29 06:07:08;;;;;;;26.50;16.33;;;;;;;;;;5055749;28;20508;-77
2022/01/29 06:09:34;;;;;;;27.90;16.67;;;;;;;;;;5060455;28;20436;-76
2022/01/29 06:12:00;;;;;;;25.52;15.93;;;;;;;;;;5061096;28;20455;-76
2022/01/29 06:14:26;;;;;;;29.50;16.13;;;;;;;;;;5060492;28;20417;-77
2022/01/29 06:16:52;;;;;;;28.00;15.60;;;8.70;99.90;;;;;;5045274;28;20424;-76
2022/01/29 06:19:18;;;;;;;28.53;15.50;;;8.80;99.90;;;;;;5043810;28;20423;-76
2022/01/29 06:21:43;;;;;;;28.80;15.87;;;8.90;99.90;;;;;;5041732;28;20546;-76
2022/01/29 06:24:10;;;;;;;26.88;15.25;;;;;;;;;;5044454;28;21015;-77
2022/01/29 06:26:36;;;;;;;27.92;15.35;;;;;;;;;;5042613;28;20428;-76
2022/01/29 06:29:02;;;;;;;29.13;16.40;;;;;;;;;;5045301;28;20768;-77
2022/01/29 06:31:28;;;;;;;25.95;15.23;;;;;;;;;;5057345;28;20507;-77
2022/01/29 06:33:54;;;;;;;29.25;15.48;;;8.90;99.90;;;;;;5045108;28;20430;-77
2022/01/29 06:36:20;;;;;;;29.00;15.10;;;;;;;;;;5054493;28;20487;-77
2022/01/29 06:38:46;;;;;;;29.65;15.15;;;;;;;;;;5060783;28;20439;-77
2022/01/29 06:41:12;;;;;;;21.90;14.95;;;;;;;;;;5057068;28;20424;-77
2022/01/29 06:43:38;;;;;;;22.63;14.18;;;;;;;;;;5059167;28;20483;-77
2022/01/29 06:46:04;;;;;;;25.90;14.48;;;;;;;;;;5075979;28;20438;-76
2022/01/29 06:48:30;;;;;;;22.77;14.25;;;;;;;;;;5074657;28;20415;-77
2022/01/29 06:50:56;;;;;;;24.65;14.05;;;;;;;;;;5075167;28;20760;-77
2022/01/29 06:53:23;;;;;;;21.15;13.15;;;;;;;;;;5042097;28;20460;-76
2022/01/29 06:55:49;;;;;;;19.67;13.25;;;;;;;;;;5075423;28;20867;-76
2022/01/29 06:58:15;;;;;;;19.95;13.75;;;;;;;;;;5040508;28;20432;-76
2022/01/29 07:00:41;;;;;;;20.25;13.05;;;;;;;;;;5052893;28;20420;-77
2022/01/29 07:03:07;;;;;;;23.20;13.32;;;;;;;;;;5059442;28;20939;-75
2022/01/29 07:05:33;;;;;;;21.67;13.23;;;;;;;;;;5060375;28;20428;-78
2022/01/29 07:07:59;;;;;;;21.73;13.93;;;9.10;99.90;;;;;;5057361;28;20436;-77
2022/01/29 07:10:26;;;;;;;22.30;12.95;;;;;;;;;;5041309;28;20501;-77
2022/01/29 07:12:52;;;;;;;21.83;12.98;;;;;;;;;;5071582;28;20425;-77
2022/01/29 07:15:18;;;;;;;21.15;13.05;;;;;;;;;;5079761;28;20432;-77
2022/01/29 07:17:44;;;;;;;20.10;12.98;;;;;;;;;;5074351;28;20885;-77
2022/01/29 07:20:10;;;;;;;24.08;13.15;;;;;;;;;;5076622;28;20423;-77
2022/01/29 07:22:37;;;;;;;23.90;13.20;;;;;;;;;;5077719;28;20477;-76
2022/01/29 07:25:03;;;;;;;23.75;13.68;;;9.30;99.90;;;;;;5072732;28;20435;-77
2022/01/29 07:27:30;;;;;;;21.73;13.00;;;;;;;;;;5072493;28;20431;-76
2022/01/29 07:29:56;;;;;;;22.58;13.48;;;;;;;;;;5060266;28;20495;-77
2022/01/29 07:32:22;;;;;;;22.15;12.70;;;;;;;;;;5075620;28;20408;-78
2022/01/29 07:34:48;;;;;;;20.08;12.60;;;;;;;;;;5042977;28;20495;-79
2022/01/29 07:37:14;;;;;;;24.75;14.02;;;;;;;;;;5041581;28;20948;-78
2022/01/29 07:39:40;;;;;;;27.70;13.23;;;;;;;;;;5073292;28;20427;-79
2022/01/29 07:42:06;;;;;;;29.05;14.27;;;;;;;;;;5071281;28;20427;-79
2022/01/29 07:44:32;;;;;;;22.23;13.65;;;;;;;;;;5042867;28;20416;-79
2022/01/29 07:46:59;;;;;;;26.33;13.85;;;;;;;;;;5043547;28;20422;-80
2022/01/29 07:49:25;;;;;;;23.08;12.98;;;;;;;;;;5058352;28;20424;-79
2022/01/29 07:51:51;;;;;;;24.45;13.20;;;;;;;;;;5058086;28;20408;-80
2022/01/29 07:54:17;;;;;;;25.20;12.75;;;;;;;;;;5056033;28;20491;-78
2022/01/29 07:56:43;;;;;;;21.40;12.07;;;;;;;;;;5058141;28;20501;-79
2022/01/29 07:59:10;;;;;;;22.23;11.95;;;;;;;;;;5052051;28;20425;-79
2022/01/29 08:01:36;;;;;;;25.08;12.45;;;;;;;;;;5034452;28;20476;-79
2022/01/29 08:04:02;;;;;;;22.30;11.75;;;;;;;;;;5042644;28;20482;-79
2022/01/29 08:06:31;;;;;;;19.45;11.48;;;;;;;;;;5055700;28;20467;-79
2022/01/29 08:08:57;;;;;;;19.90;11.43;;;;;;;;;;5057086;28;20424;-78
2022/01/29 08:11:24;;;;;;;21.90;11.20;;;;;;;;;;5053929;28;20490;-79
2022/01/29 08:13:50;;;;;;;22.15;11.55;;;;;;;;;;5075794;28;20423;-77
2022/01/29 08:16:16;;;;;;;20.65;10.45;;;;;;;;;;5073601;28;20423;-78
2022/01/29 08:18:46;;;;;;;21.15;11.45;;;;;;;;;;5056969;28;20427;-77
2022/01/29 08:21:12;;;;;;;23.02;10.95;;;;;;;;;;5057004;28;20416;-77
2022/01/29 08:23:39;;;;;;;22.58;10.57;;;;;;;;;;5038132;28;20614;-78
2022/01/29 08:26:05;;;;;;;20.90;10.35;;;;;;;;;;5053692;28;20709;-78
2022/01/29 08:28:31;;;;;;;18.60;9.45;;;;;;;;;;5055981;28;20427;-78
2022/01/29 08:30:57;;;;;;;18.00;9.52;;;;;;;;;;5074065;28;20415;-77
2022/01/29 08:33:23;;;;;;;18.92;9.70;;;;;;;;;;5074021;28;20420;-78
2022/01/29 08:35:49;;;;;;;18.70;8.95;;;;;;;;;;5056600;28;20504;-78
2022/01/29 08:38:16;;;;;;;18.60;9.10;;;;;;;;;;5056743;28;20455;-77
2022/01/29 08:40:42;;;;;;;17.05;8.35;;;;;;;;;;5055397;28;20534;-76
2022/01/29 08:43:09;;;;;;;15.73;8.43;;;9.30;99.90;;;;;;5042402;28;20432;-76
2022/01/29 08:45:37;;;;;;;16.92;8.02;;;;;;;;;;5057093;28;20827;-77
2022/01/29 08:48:03;;;;;;;15.57;7.75;;;;;;;;;;5066405;28;20423;-76
2022/01/29 08:50:29;;;;;;;13.38;7.03;;;;;;;;;;5040991;28;20795;-77
2022/01/29 08:52:55;;;;;;;14.10;7.10;;;;;;;;;;5075115;28;20416;-77
2022/01/29 08:55:25;;;;;;;13.98;7.15;;;;;;;;;;5073205;28;20423;-78
2022/01/29 08:57:51;;;;;;;12.38;6.50;;;;;;;;;;5074141;28;20427;-79
2022/01/29 09:00:17;;;;;;;14.55;7.07;;;;;;;;;;5058657;28;20438;-79
2022/01/29 09:02:43;;;;;;;12.17;6.47;;;;;;;;;;5056649;28;20427;-78
2022/01/29 09:05:11;;;;;;;11.60;6.03;;;;;;;;;;5058072;28;20435;-78
2022/01/29 09:07:37;;;;;;;13.18;6.45;;;;;;;;;;5075845;28;20430;-79
2022/01/29 09:10:04;;;;;;;11.65;6.25;;;9.80;99.90;;;;;;5081306;28;20424;-78
2022/01/29 09:12:30;;;;;;;13.43;6.50;;;;;;;;;;5056864;28;20412;-78
2022/01/29 09:14:56;;;;;;;11.95;6.90;;;;;;;;;;5055655;28;20431;-80
2022/01/29 09:17:25;;;;;;;15.45;7.18;;;;;;;;;;5038696;28;20562;-83
2022/01/29 09:19:51;;;;;;;12.43;6.47;;;;;;;;;;5054925;28;20450;-77
2022/01/29 09:22:17;;;;;;;16.05;8.32;;;;;;;;;;5056830;28;20823;-77
2022/01/29 09:24:43;;;;;;;14.07;6.28;;;9.80;99.90;;;;;;5057607;28;20469;-77
2022/01/29 09:27:09;;;;;;;12.73;5.65;;;;;;;;;;5024937;28;20435;-78
2022/01/29 09:29:35;;;;;;;13.87;6.03;;;;;;;;;;5058604;28;20510;-77
2022/01/29 09:32:02;;;;;;;14.70;5.57;;;;;;;;;;5060133;28;20980;-78
2022/01/29 09:34:28;;;;;;;12.20;6.07;;;;;;;;;;5061787;28;20423;-77
2022/01/29 09:36:55;;;;;;;13.07;5.60;;;;;;;;;;5058392;28;20424;-78
2022/01/29 09:39:21;;;;;;;14.30;5.70;;;;;;;;;;5045829;28;20457;-77
2022/01/29 09:41:47;;;;;;;13.07;5.38;;;;;;;;;;5040982;28;20429;-77
2022/01/29 09:44:13;;;;;;;14.13;5.50;;;;;;;;;;5043535;28;20415;-78
2022/01/29 09:46:41;;;;;;;10.30;5.40;;;;;;;;;;5060343;28;20420;-78
2022/01/29 09:49:07;;;;;;;12.27;5.38;;;;;;;;;;5059691;28;20967;-79
2022/01/29 09:51:33;;;;;;;12.37;5.20;;;;;;;;;;5054755;28;20415;-79
2022/01/29 09:53:59;;;;;;;13.88;4.80;;;;;;;;;;5037057;28;20417;-79
2022/01/29 09:56:28;;;;;;;10.75;4.55;;;;;;;;;;5043996;28;20479;-77
2022/01/29 09:58:54;;;;;;;13.95;5.13;;;;;;;;;;5058823;28;20417;-77
2022/01/29 10:01:20;;;;;;;11.48;4.68;;;;;;;;;;5041352;28;20455;-76
2022/01/29 10:04:06;;;;;;;14.10;4.70;;;;;;;;;;5077408;28;20772;-77
2022/01/29 10:06:34;;;;;;;13.63;4.78;;;;;;;;;;5074342;28;20427;-77
2022/01/29 10:09:04;;;;;;;12.55;4.43;;;;;;;;;;5061201;28;20434;-76
2022/01/29 10:11:31;;;;;;;12.25;4.10;;;;;;;;;;5059773;28;20430;-78
2022/01/29 10:14:01;;;;;;;11.60;4.05;;;;;;;;;;5060645;28;20431;-78
2022/01/29 10:16:28;;;;;;;10.80;4.03;;;;;;;;;;5059502;28;20558;-77
2022/01/29 10:19:00;;;;;;;13.38;4.03;;;;;;;;;;5060118;28;20430;-79
2022/01/29 10:21:28;;;;;;;11.77;4.10;;;;;;;;;;5055002;28;20451;-78
2022/01/29 10:24:03;;;;;;;9.23;3.80;;;;;;;;;;5044609;28;20419;-79
2022/01/29 10:26:33;;;;;;;10.23;3.90;;;;;;;;;;5055571;28;20447;-79
2022/01/29 10:29:00;;;;;;;12.25;4.43;;;;;;;;;;5068417;28;20455;-76
2022/01/29 10:31:38;;;;;;;13.15;4.22;;;;;;;;;;5056175;28;20553;-77
2022/01/29 10:34:14;;;;;;;15.23;4.03;;;;;;;;;;5073338;28;20447;-76
2022/01/29 10:36:40;;;;;;;9.93;3.50;;;;;;;;;;5057685;28;20456;-78
2022/01/29 10:39:06;;;;;;;9.77;3.83;;;;;;;;;;5059037;28;20451;-76
2022/01/29 10:41:32;;;;;;;12.05;3.70;;;;;;;;;;5074535;28;20434;-77
2022/01/29 10:44:21;;;;;;;11.15;3.60;;;10.20;99.90;;;;;;5056097;28;20426;-77
2022/01/29 10:46:48;;;;;;;14.43;4.47;;;;;;;;;;5075272;28;20435;-77
2022/01/29 10:49:20;;;;;;;10.00;3.33;;;;;;;;;;5065173;28;21126;-77
2022/01/29 10:51:56;;;;;;;11.00;3.72;;;;;;;;;;5049965;28;20439;-79
2022/01/29 10:54:22;;;;;;;11.77;3.70;;;;;;;;;;5067968;28;20442;-78
2022/01/29 10:56:53;;;;;;;11.90;3.47;;;;;;;;;;5073694;28;20426;-78
2022/01/29 10:59:20;;;;;;;10.48;3.42;;;;;;;;;;5056691;28;20424;-77
2022/01/29 11:01:56;;;;;;;10.30;3.20;;;;;;;;;;5050321;28;20430;-79
2022/01/29 11:04:25;;;;;;;13.27;3.50;;;;;;;;;;5051404;28;20432;-78
2022/01/29 11:06:52;;;;;;;13.15;3.72;;;;;;;;;;5032196;28;20427;-78
2022/01/29 11:09:18;;;;;;;11.32;3.42;;;;;;;;;;5057048;28;20426;-74
2022/01/29 11:11:45;;;;;;;12.93;3.75;;;;;;;;;;5067228;28;20431;-79
2022/01/29 11:14:13;;;;;;;12.23;3.63;;;;;;;;;;5025484;28;20424;-79
2022/01/29 11:16:40;;;;;;;11.70;3.22;;;;;;;;;;5047533;28;20519;-79
2022/01/29 11:19:07;;;;;;;8.90;3.25;;;;;;;;;;5058992;28;20429;-79
2022/01/29 11:21:33;;;;;;;11.27;3.10;;;;;;;;;;5054915;28;20426;-79
2022/01/29 11:24:00;;;;;;;8.10;2.85;;;;;;;;;;5059519;28;20460;-78
2022/01/29 11:26:29;;;;;;;12.25;3.10;;;;;;;;;;5073223;28;20465;-78
2022/01/29 11:29:14;;;;;;;10.67;2.83;;;;;;;;;;5064967;28;21030;-77
2022/01/29 11:31:40;;;;;;;10.60;3.30;;;11.00;99.90;;;;;;5056000;28;20846;-79
2022/01/29 11:34:08;;;;;;;10.20;3.10;;;;;;;;;;5013808;28;20650;-78
2022/01/29 11:36:49;;;;;;;9.52;2.97;;;;;;;;;;5048142;28;20426;-76
2022/01/29 11:39:22;;;;;;;8.98;2.78;;;;;;;;;;5049269;28;20499;-78
2022/01/29 11:42:07;;;;;;;7.95;2.70;;;;;;;;;;5048109;28;20430;-79
2022/01/29 11:44:33;;;;;;;8.52;2.80;;;;;;;;;;5052711;28;20453;-77
2022/01/29 11:47:21;;;;;;;12.35;2.65;;;11.10;99.90;;;;;;5057709;28;20464;-79
2022/01/29 11:49:49;;;;;;;8.13;2.60;;;;;;;;;;5055932;28;20505;-77
2022/01/29 11:52:22;;;;;;;6.57;2.40;;;;;;;;;;5054646;28;20454;-76
2022/01/29 11:55:06;;;;;;;9.18;2.55;;;;;;;;;;5055351;28;20461;-78
2022/01/29 11:57:31;;;;;;;8.55;2.58;;;11.30;99.90;;;;;;5047031;28;20428;-75
2022/01/29 12:00:17;;;;;;;10.17;2.60;;;;;;;;;;5055803;28;20492;-78
2022/01/29 12:02:44;;;;;;;6.47;2.28;;;;;;;;;;5073827;28;20440;-77
2022/01/29 12:05:14;;;;;;;10.95;2.50;;;;;;;;;;5057332;28;20430;-76
2022/01/29 12:08:00;;;;;;;6.80;2.13;;;;;;;;;;5055485;28;20432;-78
2022/01/29 12:10:36;;;;;;;7.05;2.42;;;;;;;;;;5066719;28;20878;-77
2022/01/29 12:13:10;;;;;;;9.00;2.40;;;;;;;;;;5054430;28;20431;-77
2022/01/29 12:15:37;;;;;;;8.70;2.40;;;11.30;99.90;;;;;;5052337;28;21121;-77
2022/01/29 12:18:07;;;;;;;8.48;2.40;;;;;;;;;;5051629;28;20459;-77
2022/01/29 12:20:33;;;;;;;8.43;2.40;;;;;;;;;;5039108;28;20413;-77
2022/01/29 12:23:01;;;;;;;7.38;2.30;;;;;;;;;;5071754;28;20436;-78
2022/01/29 12:25:28;;;;;;;8.18;2.20;;;;;;;;;;5054814;28;20432;-74
2022/01/29 12:28:05;;;;;;;8.35;2.35;;;;;;;;;;5059264;28;20463;-76
2022/01/29 12:30:38;;;;;;;7.85;2.70;;;;;;;;;;5073902;28;20439;-77
2022/01/29 12:33:04;;;;;;;8.77;2.60;;;;;;;;;;5057381;28;20444;-76
2022/01/29 12:35:42;;;;;;;9.95;2.50;;;11.50;99.90;;;;;;5066764;28;21052;-77
2022/01/29 12:38:10;;;;;;;11.70;2.90;;;;;;;;;;5042142;28;20435;-77
2022/01/29 12:40:39;;;;;;;9.10;2.97;;;;;;;;;;5051101;28;20425;-77
2022/01/29 12:43:30;;;;;;;9.20;2.70;;;11.60;99.90;;;;;;5047955;28;20427;-75
2022/01/29 12:46:15;;;;;;;9.93;2.63;;;;;;;;;;5050667;28;21269;-76
2022/01/29 12:48:57;;;;;;;10.23;2.53;;;;;;;;;;5071885;28;20649;-76
2022/01/29 12:51:23;;;;;;;9.40;2.83;;;;;;;;;;5050450;28;20429;-73
2022/01/29 12:54:00;;;;;;;10.17;2.77;;;;;;;;;;5043039;28;20440;-76
2022/01/29 12:56:31;;;;;;;11.37;2.77;;;;;;;;;;5047705;28;20429;-76
2022/01/29 12:58:57;;;;;;;9.82;2.50;;;;;;;;;;5049202;28;20439;-75
2022/01/29 13:01:25;;;;;;;9.93;2.85;;;;;;;;;;5048784;28;20953;-76
2022/01/29 13:03:59;;;;;;;11.05;3.38;;;;;;;;;;5045771;28;20421;-78
2022/01/29 13:06:25;;;;;;;8.87;2.90;;;;;;;;;;5043308;28;20414;-77
2022/01/29 13:08:51;;;;;;;8.32;3.00;;;;;;;;;;5064430;28;20839;-76
2022/01/29 13:11:25;;;;;;;9.52;2.60;;;;;;;;;;5052183;28;20846;-76
2022/01/29 13:13:51;;;;;;;9.60;2.63;;;;;;;;;;5058491;28;20499;-77
2022/01/29 13:16:18;;;;;;;9.85;2.92;;;;;;;;;;5060632;28;20450;-75
2022/01/29 13:18:44;;;;;;;10.82;2.88;;;;;;;;;;5062433;28;20987;-76
2022/01/29 13:21:11;;;;;;;9.27;2.60;;;;;;;;;;5058566;28;20423;-76
2022/01/29 13:23:38;;;;;;;10.30;2.70;;;;;;;;;;5077329;28;20438;-76
2022/01/29 13:26:14;;;;;;;10.27;2.70;;;;;;;;;;5059144;28;20455;-77
2022/01/29 13:28:46;;;;;;;8.65;2.50;;;;;;;;;;5059290;28;20522;-78
2022/01/29 13:31:12;;;;;;;12.52;2.85;;;;;;;;;;5082711;28;20539;-77
2022/01/29 13:33:38;;;;;;;9.45;2.67;;;;;;;;;;5079855;28;20424;-75
2022/01/29 13:36:05;;;;;;;11.13;2.20;;;;;;;;;;5038767;28;20425;-76
2022/01/29 13:38:39;;;;;;;7.95;2.45;;;;;;;;;;5059801;28;20436;-77
2022/01/29 13:41:05;;;;;;;8.27;2.30;;;;;;;;;;5068673;28;20495;-76
2022/01/29 13:43:41;;;;;;;11.27;2.40;;;;;;;;;;5065228;28;20540;-76
2022/01/29 13:46:08;;;;;;;8.20;2.10;;;;;;;;;;5061570;28;20460;-76
2022/01/29 13:48:45;;;;;;;10.60;2.33;;;;;;;;;;5044725;28;20434;-77
2022/01/29 13:51:12;;;;;;;6.88;2.10;;;;;;;;;;5044871;28;20440;-77
2022/01/29 13:53:38;;;;;;;7.57;1.88;;;;;;;;;;5061107;28;21012;-76
2022/01/29 13:56:06;;;;;;;9.88;2.30;;;;;;;;;;5060461;28;20457;-77
2022/01/29 13:58:51;;;;;;;7.75;2.30;;;;;;;;;;5070650;28;20427;-77
2022/01/29 14:01:34;;;;;;;7.82;2.13;;;;;;;;;;5070337;28;20956;-77
2022/01/29 14:04:00;;;;;;;9.10;2.40;;;;;;;;;;5074062;28;20436;-75
2022/01/29 14:06:44;;;;;;;7.25;1.98;;;;;;;;;;5059446;28;20427;-78
2022/01/29 14:09:22;;;;;;;9.80;2.10;;;;;;;;;;5059711;28;20428;-79
2022/01/29 14:11:58;;;;;;;7.28;2.30;;;;;;;;;;5074628;28;20996;-74
2022/01/29 14:14:38;;;;;;;9.83;2.20;;;;;;;;;;5053443;28;20479;-76
2022/01/29 14:17:08;;;;;;;8.32;2.00;;;;;;;;;;5060032;28;20975;-76
2022/01/29 14:19:36;;;;;;;8.75;2.70;;;;;;;;;;5075705;28;20443;-76
2022/01/29 14:22:03;;;;;;;8.60;2.20;;;;;;;;;;5060189;28;20843;-76
2022/01/29 14:24:30;;;;;;;8.57;2.50;;;;;;;;;;5076782;28;20423;-75
2022/01/29 14:26:57;;;;;;;8.47;2.40;;;;;;;;;;5069833;28;20473;-75
2022/01/29 14:29:24;;;;;;;8.35;2.13;;;;;;;;;;5072446;28;20426;-74
2022/01/29 14:31:50;;;;;;;7.38;2.20;;;;;;;;;;5057738;28;20412;-75
2022/01/29 14:34:16;;;;;;;8.40;2.28;;;;;;;;;;5076674;28;20461;-76